sensor_id;sensor_type;location;lat;lon;timestamp;pressure;altitude;pressure_sealevel;temperature;humidity
54369;BME280;40266;52.434;17.056;2024-02-23T00:01:19;98031.42;;;8.76;100.00
54369;BME280;40266;52.434;17.056;2024-02-23T00:04:46;98035.06;;;8.76;100.00
54369;BME280;40266;52.434;17.056;2024-02-23T00:08:08;98034.34;;;8.77;100.00
54369;BME280;40266;52.434;17.056;2024-02-23T00:11:27;98028.87;;;8.78;100.00
54369;BME280;40266;52.434;17.056;2024-02-23T00:18:03;98021.63;;;8.81;100.00
54369;BME280;40266;52.434;17.056;2024-02-23T00:21:55;98023.77;;;8.83;100.00
54369;BME280;40266;52.434;17.056;2024-02-23T00:25:17;98025.87;;;8.82;100.00
54369;BME280;40266;52.434;17.056;2024-02-23T00:28:52;98023.02;;;8.83;100.00
54369;BME280;40266;52.434;17.056;2024-02-23T00:32:08;98025.21;;;8.85;100.00
54369;BME280;40266;52.434;17.056;2024-02-23T00:38:29;98017.95;;;8.91;100.00
54369;BME280;40266;52.434;17.056;2024-02-23T00:41:21;98016.80;;;8.93;100.00
54369;BME280;40266;52.434;17.056;2024-02-23T00:44:29;98015.14;;;8.94;100.00
54369;BME280;40266;52.434;17.056;2024-02-23T00:47:50;98008.11;;;8.96;100.00
54369;BME280;40266;52.434;17.056;2024-02-23T00:50:41;98010.95;;;8.98;100.00
54369;BME280;40266;52.434;17.056;2024-02-23T00:53:43;98011.99;;;9.01;100.00
54369;BME280;40266;52.434;17.056;2024-02-23T00:57:14;98001.84;;;9.05;100.00
54369;BME280;40266;52.434;17.056;2024-02-23T01:00:20;98008.09;;;9.09;100.00
54369;BME280;40266;52.434;17.056;2024-02-23T01:03:50;98009.70;;;9.12;100.00
54369;BME280;40266;52.434;17.056;2024-02-23T01:06:50;98012.04;;;9.13;100.00
54369;BME280;40266;52.434;17.056;2024-02-23T01:10:10;98009.05;;;9.17;100.00
54369;BME280;40266;52.434;17.056;2024-02-23T01:13:02;98011.38;;;9.19;100.00
54369;BME280;40266;52.434;17.056;2024-02-23T01:16:06;98014.77;;;9.21;100.00
54369;BME280;40266;52.434;17.056;2024-02-23T01:18:58;98006.95;;;9.20;100.00
54369;BME280;40266;52.434;17.056;2024-02-23T01:22:07;98019.54;;;9.26;100.00
54369;BME280;40266;52.434;17.056;2024-02-23T01:28:33;98021.86;;;9.31;100.00
54369;BME280;40266;52.434;17.056;2024-02-23T01:35:08;98025.51;;;9.35;100.00
54369;BME280;40266;52.434;17.056;2024-02-23T01:38:18;98015.88;;;9.36;100.00
54369;BME280;40266;52.434;17.056;2024-02-23T01:41:24;98020.52;;;9.37;100.00
54369;BME280;40266;52.434;17.056;2024-02-23T01:44:56;98021.23;;;9.36;100.00
54369;BME280;40266;52.434;17.056;2024-02-23T01:48:25;98028.20;;;9.37;100.00
54369;BME280;40266;52.434;17.056;2024-02-23T01:51:43;98031.42;;;9.38;100.00
54369;BME280;40266;52.434;17.056;2024-02-23T01:54:57;98028.96;;;9.38;100.00
54369;BME280;40266;52.434;17.056;2024-02-23T01:58:09;98029.04;;;9.40;100.00
54369;BME280;40266;52.434;17.056;2024-02-23T02:01:13;98037.03;;;9.41;100.00
54369;BME280;40266;52.434;17.056;2024-02-23T02:07:50;98026.73;;;9.44;100.00
54369;BME280;40266;52.434;17.056;2024-02-23T02:10:49;98031.70;;;9.46;100.00
54369;BME280;40266;52.434;17.056;2024-02-23T02:14:11;98023.77;;;9.47;100.00
54369;BME280;40266;52.434;17.056;2024-02-23T02:17:03;98023.23;;;9.47;100.00
54369;BME280;40266;52.434;17.056;2024-02-23T02:20:30;98021.05;;;9.49;100.00
54369;BME280;40266;52.434;17.056;2024-02-23T02:23:47;98026.59;;;9.49;100.00
54369;BME280;40266;52.434;17.056;2024-02-23T02:27:02;98025.36;;;9.50;100.00
54369;BME280;40266;52.434;17.056;2024-02-23T02:30:34;98028.27;;;9.51;100.00
54369;BME280;40266;52.434;17.056;2024-02-23T02:37:16;98038.00;;;9.51;100.00
54369;BME280;40266;52.434;17.056;2024-02-23T02:40:44;98043.31;;;9.50;100.00
54369;BME280;40266;52.434;17.056;2024-02-23T02:44:02;98046.16;;;9.48;100.00
54369;BME280;40266;52.434;17.056;2024-02-23T02:47:14;98046.07;;;9.47;100.00
54369;BME280;40266;52.434;17.056;2024-02-23T02:50:22;98038.23;;;9.47;100.00
54369;BME280;40266;52.434;17.056;2024-02-23T02:53:40;98034.92;;;9.47;100.00
54369;BME280;40266;52.434;17.056;2024-02-23T02:57:17;98039.90;;;9.45;100.00
54369;BME280;40266;52.434;17.056;2024-02-23T03:00:25;98048.65;;;9.45;100.00
54369;BME280;40266;52.434;17.056;2024-02-23T03:03:25;98060.70;;;9.44;100.00
54369;BME280;40266;52.434;17.056;2024-02-23T03:06:34;98065.10;;;9.43;100.00
54369;BME280;40266;52.434;17.056;2024-02-23T03:12:52;98074.34;;;9.40;100.00
54369;BME280;40266;52.434;17.056;2024-02-23T03:16:06;98071.92;;;9.39;100.00
54369;BME280;40266;52.434;17.056;2024-02-23T03:26:09;98087.06;;;9.34;100.00
54369;BME280;40266;52.434;17.056;2024-02-23T03:29:18;98090.88;;;9.34;100.00
54369;BME280;40266;52.434;17.056;2024-02-23T03:32:56;98091.71;;;9.35;100.00
54369;BME280;40266;52.434;17.056;2024-02-23T03:36:39;98102.41;;;9.37;100.00
54369;BME280;40266;52.434;17.056;2024-02-23T03:43:04;98109.23;;;9.39;100.00
54369;BME280;40266;52.434;17.056;2024-02-23T03:50:07;98113.77;;;9.45;100.00
54369;BME280;40266;52.434;17.056;2024-02-23T03:53:35;98122.31;;;9.48;100.00
54369;BME280;40266;52.434;17.056;2024-02-23T03:57:09;98128.79;;;9.51;100.00
54369;BME280;40266;52.434;17.056;2024-02-23T04:00:40;98136.95;;;9.55;100.00
54369;BME280;40266;52.434;17.056;2024-02-23T04:07:12;98144.27;;;9.62;100.00
54369;BME280;40266;52.434;17.056;2024-02-23T04:10:18;98153.96;;;9.66;100.00
54369;BME280;40266;52.434;17.056;2024-02-23T04:13:10;98158.68;;;9.69;100.00
54369;BME280;40266;52.434;17.056;2024-02-23T04:16:24;98167.13;;;9.71;100.00
54369;BME280;40266;52.434;17.056;2024-02-23T04:19:42;98178.88;;;9.72;100.00
54369;BME280;40266;52.434;17.056;2024-02-23T04:22:46;98187.57;;;9.73;100.00
54369;BME280;40266;52.434;17.056;2024-02-23T04:25:32;98190.27;;;9.75;100.00
54369;BME280;40266;52.434;17.056;2024-02-23T04:28:23;98191.06;;;9.76;100.00
54369;BME280;40266;52.434;17.056;2024-02-23T04:31:29;98191.29;;;9.79;100.00
54369;BME280;40266;52.434;17.056;2024-02-23T04:34:35;98194.33;;;9.80;100.00
54369;BME280;40266;52.434;17.056;2024-02-23T04:37:37;98194.58;;;9.82;100.00
54369;BME280;40266;52.434;17.056;2024-02-23T04:40:33;98198.94;;;9.82;100.00
54369;BME280;40266;52.434;17.056;2024-02-23T04:43:26;98204.02;;;9.82;100.00
54369;BME280;40266;52.434;17.056;2024-02-23T04:46:20;98211.79;;;9.83;100.00
54369;BME280;40266;52.434;17.056;2024-02-23T04:52:48;98221.50;;;9.84;100.00
54369;BME280;40266;52.434;17.056;2024-02-23T04:55:52;98227.34;;;9.85;100.00
54369;BME280;40266;52.434;17.056;2024-02-23T04:59:02;98226.23;;;9.86;100.00
54369;BME280;40266;52.434;17.056;2024-02-23T05:02:06;98234.25;;;9.87;100.00
54369;BME280;40266;52.434;17.056;2024-02-23T05:05:19;98237.77;;;9.86;100.00
54369;BME280;40266;52.434;17.056;2024-02-23T05:08:23;98243.83;;;9.87;100.00
54369;BME280;40266;52.434;17.056;2024-02-23T05:11:44;98251.23;;;9.85;100.00
54369;BME280;40266;52.434;17.056;2024-02-23T05:14:34;98259.56;;;9.86;100.00
54369;BME280;40266;52.434;17.056;2024-02-23T05:17:50;98274.60;;;9.85;100.00
54369;BME280;40266;52.434;17.056;2024-02-23T05:20:48;98277.13;;;9.84;100.00
54369;BME280;40266;52.434;17.056;2024-02-23T05:24:22;98287.35;;;9.84;100.00
54369;BME280;40266;52.434;17.056;2024-02-23T05:27:25;98299.06;;;9.84;100.00
54369;BME280;40266;52.434;17.056;2024-02-23T05:30:32;98300.63;;;9.84;100.00
54369;BME280;40266;52.434;17.056;2024-02-23T05:33:33;98306.89;;;9.84;100.00
54369;BME280;40266;52.434;17.056;2024-02-23T05:36:53;98313.27;;;9.85;100.00
54369;BME280;40266;52.434;17.056;2024-02-23T05:43:11;98331.39;;;9.86;100.00
54369;BME280;40266;52.434;17.056;2024-02-23T05:46:36;98334.80;;;9.87;100.00
54369;BME280;40266;52.434;17.056;2024-02-23T05:49:40;98346.70;;;9.90;100.00
54369;BME280;40266;52.434;17.056;2024-02-23T05:56:10;98363.25;;;9.93;100.00
54369;BME280;40266;52.434;17.056;2024-02-23T05:59:39;98361.05;;;9.96;100.00
54369;BME280;40266;52.434;17.056;2024-02-23T06:06:18;98379.66;;;10.00;100.00
54369;BME280;40266;52.434;17.056;2024-02-23T06:09:22;98381.52;;;10.01;100.00
54369;BME280;40266;52.434;17.056;2024-02-23T06:12:39;98389.00;;;10.05;100.00
54369;BME280;40266;52.434;17.056;2024-02-23T06:18:56;98399.77;;;10.09;100.00
54369;BME280;40266;52.434;17.056;2024-02-23T06:22:09;98402.16;;;10.10;99.83
54369;BME280;40266;52.434;17.056;2024-02-23T06:25:01;98411.65;;;10.12;99.40
54369;BME280;40266;52.434;17.056;2024-02-23T06:27:58;98417.84;;;10.13;99.56
54369;BME280;40266;52.434;17.056;2024-02-23T06:30:44;98422.13;;;10.15;99.27
54369;BME280;40266;52.434;17.056;2024-02-23T06:34:10;98427.39;;;10.18;99.33
54369;BME280;40266;52.434;17.056;2024-02-23T06:37:02;98434.65;;;10.20;99.03
54369;BME280;40266;52.434;17.056;2024-02-23T06:40:15;98437.98;;;10.19;98.97
54369;BME280;40266;52.434;17.056;2024-02-23T06:50:33;98459.48;;;10.25;99.09
54369;BME280;40266;52.434;17.056;2024-02-23T06:53:55;98470.97;;;10.25;98.66
54369;BME280;40266;52.434;17.056;2024-02-23T06:57:06;98480.61;;;10.28;98.63
54369;BME280;40266;52.434;17.056;2024-02-23T07:00:11;98487.77;;;10.32;98.48
54369;BME280;40266;52.434;17.056;2024-02-23T07:06:55;98498.77;;;10.35;98.02
54369;BME280;40266;52.434;17.056;2024-02-23T07:09:53;98507.52;;;10.34;96.90
54369;BME280;40266;52.434;17.056;2024-02-23T07:16:10;98528.86;;;10.30;93.82
54369;BME280;40266;52.434;17.056;2024-02-23T07:19:16;98532.90;;;10.25;92.30
54369;BME280;40266;52.434;17.056;2024-02-23T07:22:10;98537.60;;;10.22;90.99
54369;BME280;40266;52.434;17.056;2024-02-23T07:25:19;98544.18;;;10.19;90.01
54369;BME280;40266;52.434;17.056;2024-02-23T07:28:34;98544.06;;;10.18;89.14
54369;BME280;40266;52.434;17.056;2024-02-23T07:32:04;98549.60;;;10.16;88.49
54369;BME280;40266;52.434;17.056;2024-02-23T07:35:14;98558.17;;;10.15;88.29
54369;BME280;40266;52.434;17.056;2024-02-23T07:38:38;98565.02;;;10.14;87.49
54369;BME280;40266;52.434;17.056;2024-02-23T07:41:47;98567.16;;;10.13;87.25
54369;BME280;40266;52.434;17.056;2024-02-23T07:44:53;98580.26;;;10.13;86.86
54369;BME280;40266;52.434;17.056;2024-02-23T07:47:47;98588.92;;;10.14;86.79
54369;BME280;40266;52.434;17.056;2024-02-23T07:50:45;98592.92;;;10.14;86.62
54369;BME280;40266;52.434;17.056;2024-02-23T07:53:34;98597.89;;;10.13;85.98
54369;BME280;40266;52.434;17.056;2024-02-23T07:56:38;98607.60;;;10.10;85.12
54369;BME280;40266;52.434;17.056;2024-02-23T07:59:36;98606.56;;;10.07;83.82
54369;BME280;40266;52.434;17.056;2024-02-23T08:02:47;98612.92;;;10.05;83.78
54369;BME280;40266;52.434;17.056;2024-02-23T08:06:04;98623.57;;;10.04;83.97
54369;BME280;40266;52.434;17.056;2024-02-23T08:08:58;98630.55;;;10.05;83.67
54369;BME280;40266;52.434;17.056;2024-02-23T08:11:52;98634.67;;;10.06;83.79
54369;BME280;40266;52.434;17.056;2024-02-23T08:15:07;98645.81;;;10.06;83.18
54369;BME280;40266;52.434;17.056;2024-02-23T08:18:02;98649.73;;;10.08;83.08
54369;BME280;40266;52.434;17.056;2024-02-23T08:21:06;98652.59;;;10.10;82.68
54369;BME280;40266;52.434;17.056;2024-02-23T08:24:05;98661.75;;;10.12;82.43
54369;BME280;40266;52.434;17.056;2024-02-23T08:27:14;98664.20;;;10.16;82.62
54369;BME280;40266;52.434;17.056;2024-02-23T08:30:14;98669.28;;;10.19;82.59
54369;BME280;40266;52.434;17.056;2024-02-23T08:33:26;98671.92;;;10.22;83.01
54369;BME280;40266;52.434;17.056;2024-02-23T08:36:12;98675.56;;;10.23;81.94
54369;BME280;40266;52.434;17.056;2024-02-23T08:39:11;98678.89;;;10.22;81.87
54369;BME280;40266;52.434;17.056;2024-02-23T08:42:10;98676.34;;;10.21;81.09
54369;BME280;40266;52.434;17.056;2024-02-23T08:48:20;98684.59;;;10.16;79.66
54369;BME280;40266;52.434;17.056;2024-02-23T08:51:13;98692.20;;;10.13;79.88
54369;BME280;40266;52.434;17.056;2024-02-23T08:54:30;98700.05;;;10.13;79.47
54369;BME280;40266;52.434;17.056;2024-02-23T08:57:44;98710.48;;;10.15;79.18
54369;BME280;40266;52.434;17.056;2024-02-23T09:00:27;98718.57;;;10.17;78.74
54369;BME280;40266;52.434;17.056;2024-02-23T09:03:38;98731.94;;;10.22;79.17
54369;BME280;40266;52.434;17.056;2024-02-23T09:06:31;98736.26;;;10.26;78.90
54369;BME280;40266;52.434;17.056;2024-02-23T09:09:43;98746.33;;;10.28;78.50
54369;BME280;40266;52.434;17.056;2024-02-23T09:12:45;98751.05;;;10.32;78.63
54369;BME280;40266;52.434;17.056;2024-02-23T09:16:22;98770.66;;;10.34;78.13
54369;BME280;40266;52.434;17.056;2024-02-23T09:19:21;98785.83;;;10.34;77.47
54369;BME280;40266;52.434;17.056;2024-02-23T09:22:19;98794.20;;;10.34;76.92
54369;BME280;40266;52.434;17.056;2024-02-23T09:25:34;98798.50;;;10.32;76.15
54369;BME280;40266;52.434;17.056;2024-02-23T09:28:35;98797.63;;;10.28;75.87
54369;BME280;40266;52.434;17.056;2024-02-23T09:31:35;98797.53;;;10.26;75.79
54369;BME280;40266;52.434;17.056;2024-02-23T09:34:25;98806.59;;;10.26;74.45
54369;BME280;40266;52.434;17.056;2024-02-23T09:37:15;98811.34;;;10.25;74.63
54369;BME280;40266;52.434;17.056;2024-02-23T09:40:32;98817.20;;;10.27;75.28
54369;BME280;40266;52.434;17.056;2024-02-23T09:43:44;98825.27;;;10.30;75.33
54369;BME280;40266;52.434;17.056;2024-02-23T09:46:27;98829.69;;;10.33;75.42
54369;BME280;40266;52.434;17.056;2024-02-23T09:49:35;98832.78;;;10.38;75.65
54369;BME280;40266;52.434;17.056;2024-02-23T09:52:23;98837.45;;;10.42;75.44
54369;BME280;40266;52.434;17.056;2024-02-23T09:55:09;98842.03;;;10.45;75.05
54369;BME280;40266;52.434;17.056;2024-02-23T09:58:13;98841.21;;;10.51;74.75
54369;BME280;40266;52.434;17.056;2024-02-23T10:01:08;98849.00;;;10.57;74.58
54369;BME280;40266;52.434;17.056;2024-02-23T10:04:27;98857.12;;;10.59;74.30
54369;BME280;40266;52.434;17.056;2024-02-23T10:07:34;98863.32;;;10.64;75.24
54369;BME280;40266;52.434;17.056;2024-02-23T10:10:24;98872.16;;;10.69;75.00
54369;BME280;40266;52.434;17.056;2024-02-23T10:13:48;98870.52;;;10.74;74.64
54369;BME280;40266;52.434;17.056;2024-02-23T10:16:47;98869.23;;;10.79;74.81
54369;BME280;40266;52.434;17.056;2024-02-23T10:19:41;98868.18;;;10.87;74.82
54369;BME280;40266;52.434;17.056;2024-02-23T10:22:24;98870.66;;;10.94;74.56
54369;BME280;40266;52.434;17.056;2024-02-23T10:25:33;98874.86;;;11.01;73.59
54369;BME280;40266;52.434;17.056;2024-02-23T10:28:28;98888.70;;;11.08;73.07
54369;BME280;40266;52.434;17.056;2024-02-23T10:31:35;98890.82;;;11.11;73.06
54369;BME280;40266;52.434;17.056;2024-02-23T10:34:36;98896.50;;;11.12;73.39
54369;BME280;40266;52.434;17.056;2024-02-23T10:37:29;98898.38;;;11.17;72.57
54369;BME280;40266;52.434;17.056;2024-02-23T10:40:13;98898.76;;;11.16;71.68
54369;BME280;40266;52.434;17.056;2024-02-23T10:43:02;98892.38;;;11.22;72.25
54369;BME280;40266;52.434;17.056;2024-02-23T10:46:05;98891.92;;;11.28;71.99
54369;BME280;40266;52.434;17.056;2024-02-23T10:48:52;98893.02;;;11.30;71.75
54369;BME280;40266;52.434;17.056;2024-02-23T10:51:57;98900.31;;;11.31;72.30
54369;BME280;40266;52.434;17.056;2024-02-23T10:54:42;98902.52;;;11.32;72.43
54369;BME280;40266;52.434;17.056;2024-02-23T10:57:49;98896.04;;;11.29;72.17
54369;BME280;40266;52.434;17.056;2024-02-23T11:00:34;98906.13;;;11.27;72.15
54369;BME280;40266;52.434;17.056;2024-02-23T11:03:41;98907.48;;;11.28;72.05
54369;BME280;40266;52.434;17.056;2024-02-23T11:06:36;98913.05;;;11.32;71.18
54369;BME280;40266;52.434;17.056;2024-02-23T11:09:23;98910.20;;;11.36;70.73
54369;BME280;40266;52.434;17.056;2024-02-23T11:12:26;98916.73;;;11.38;69.90
54369;BME280;40266;52.434;17.056;2024-02-23T11:15:41;98916.89;;;11.39;68.74
54369;BME280;40266;52.434;17.056;2024-02-23T11:21:39;98923.30;;;11.26;68.16
54369;BME280;40266;52.434;17.056;2024-02-23T11:24:25;98930.98;;;11.26;68.70
54369;BME280;40266;52.434;17.056;2024-02-23T11:27:15;98926.30;;;11.29;68.37
54369;BME280;40266;52.434;17.056;2024-02-23T11:30:09;98925.72;;;11.30;66.14
54369;BME280;40266;52.434;17.056;2024-02-23T11:33:29;98933.20;;;11.27;66.90
54369;BME280;40266;52.434;17.056;2024-02-23T11:36:11;98932.36;;;11.23;66.26
54369;BME280;40266;52.434;17.056;2024-02-23T11:39:18;98916.25;;;11.19;66.56
54369;BME280;40266;52.434;17.056;2024-02-23T11:42:23;98920.34;;;11.26;66.62
54369;BME280;40266;52.434;17.056;2024-02-23T11:45:36;98923.85;;;11.25;66.19
54369;BME280;40266;52.434;17.056;2024-02-23T11:51:37;98928.53;;;11.15;66.99
54369;BME280;40266;52.434;17.056;2024-02-23T11:54:26;98931.11;;;11.05;66.43
54369;BME280;40266;52.434;17.056;2024-02-23T11:57:19;98932.89;;;10.96;66.64
54369;BME280;40266;52.434;17.056;2024-02-23T12:00:25;98938.27;;;10.90;66.68
54369;BME280;40266;52.434;17.056;2024-02-23T12:03:11;98940.81;;;10.84;66.51
54369;BME280;40266;52.434;17.056;2024-02-23T12:06:22;98943.02;;;10.74;66.37
54369;BME280;40266;52.434;17.056;2024-02-23T12:09:35;98949.84;;;10.62;65.03
54369;BME280;40266;52.434;17.056;2024-02-23T12:15:55;98956.23;;;10.40;65.60
54369;BME280;40266;52.434;17.056;2024-02-23T12:18:41;98960.58;;;10.32;65.43
54369;BME280;40266;52.434;17.056;2024-02-23T12:21:59;98963.08;;;10.26;65.41
54369;BME280;40266;52.434;17.056;2024-02-23T12:25:25;98973.17;;;10.23;65.78
54369;BME280;40266;52.434;17.056;2024-02-23T12:28:43;98985.42;;;10.18;65.94
54369;BME280;40266;52.434;17.056;2024-02-23T12:31:37;99003.61;;;10.12;66.47
54369;BME280;40266;52.434;17.056;2024-02-23T12:34:43;99012.52;;;10.08;66.12
54369;BME280;40266;52.434;17.056;2024-02-23T12:37:56;99024.12;;;10.01;66.03
54369;BME280;40266;52.434;17.056;2024-02-23T12:41:08;99023.98;;;9.97;66.16
54369;BME280;40266;52.434;17.056;2024-02-23T12:44:16;99030.13;;;9.91;66.56
54369;BME280;40266;52.434;17.056;2024-02-23T12:47:42;99039.73;;;9.86;66.73
54369;BME280;40266;52.434;17.056;2024-02-23T12:50:35;99035.47;;;9.84;66.65
54369;BME280;40266;52.434;17.056;2024-02-23T12:53:55;99040.10;;;9.82;66.95
54369;BME280;40266;52.434;17.056;2024-02-23T12:56:56;99042.75;;;9.81;67.23
54369;BME280;40266;52.434;17.056;2024-02-23T13:00:00;99045.80;;;9.83;67.05
54369;BME280;40266;52.434;17.056;2024-02-23T13:05:53;99037.92;;;9.97;67.47
54369;BME280;40266;52.434;17.056;2024-02-23T13:09:07;99038.11;;;10.05;67.66
54369;BME280;40266;52.434;17.056;2024-02-23T13:12:01;99036.98;;;10.16;67.62
54369;BME280;40266;52.434;17.056;2024-02-23T13:17:49;99045.97;;;10.22;66.00
54369;BME280;40266;52.434;17.056;2024-02-23T13:20:53;99038.57;;;10.23;66.19
54369;BME280;40266;52.434;17.056;2024-02-23T13:26:37;99040.17;;;10.23;65.74
54369;BME280;40266;52.434;17.056;2024-02-23T13:29:42;99043.48;;;10.23;66.02
54369;BME280;40266;52.434;17.056;2024-02-23T13:32:29;99042.82;;;10.26;66.34
54369;BME280;40266;52.434;17.056;2024-02-23T13:35:12;99037.00;;;10.32;66.82
54369;BME280;40266;52.434;17.056;2024-02-23T13:38:28;99029.02;;;10.40;66.91
54369;BME280;40266;52.434;17.056;2024-02-23T13:41:32;99021.94;;;10.42;67.05
54369;BME280;40266;52.434;17.056;2024-02-23T13:44:50;99020.45;;;10.44;66.78
54369;BME280;40266;52.434;17.056;2024-02-23T13:47:54;99017.55;;;10.47;67.02
54369;BME280;40266;52.434;17.056;2024-02-23T13:50:43;99018.01;;;10.48;67.22
54369;BME280;40266;52.434;17.056;2024-02-23T13:53:51;99018.39;;;10.47;66.88
54369;BME280;40266;52.434;17.056;2024-02-23T13:56:46;99018.66;;;10.45;66.91
54369;BME280;40266;52.434;17.056;2024-02-23T14:05:54;99034.77;;;10.40;67.63
54369;BME280;40266;52.434;17.056;2024-02-23T14:08:41;99035.98;;;10.35;67.36
54369;BME280;40266;52.434;17.056;2024-02-23T14:14:51;99048.98;;;10.30;67.01
54369;BME280;40266;52.434;17.056;2024-02-23T14:17:34;99052.70;;;10.28;67.53
54369;BME280;40266;52.434;17.056;2024-02-23T14:21:01;99061.55;;;10.24;67.38
54369;BME280;40266;52.434;17.056;2024-02-23T14:24:04;99071.96;;;10.22;67.90
54369;BME280;40266;52.434;17.056;2024-02-23T14:26:48;99075.03;;;10.15;67.77
54369;BME280;40266;52.434;17.056;2024-02-23T14:29:53;99076.98;;;10.06;67.86
54369;BME280;40266;52.434;17.056;2024-02-23T14:33:03;99080.34;;;10.00;68.38
54369;BME280;40266;52.434;17.056;2024-02-23T14:36:06;99078.48;;;9.94;68.35
54369;BME280;40266;52.434;17.056;2024-02-23T14:39:19;99082.75;;;9.88;68.68
54369;BME280;40266;52.434;17.056;2024-02-23T14:42:22;99082.33;;;9.85;69.30
54369;BME280;40266;52.434;17.056;2024-02-23T14:45:38;99084.94;;;9.81;69.53
54369;BME280;40266;52.434;17.056;2024-02-23T14:48:26;99091.23;;;9.76;69.26
54369;BME280;40266;52.434;17.056;2024-02-23T14:51:30;99094.23;;;9.71;69.31
54369;BME280;40266;52.434;17.056;2024-02-23T14:54:24;99094.41;;;9.66;69.42
54369;BME280;40266;52.434;17.056;2024-02-23T14:57:40;99098.20;;;9.63;69.66
54369;BME280;40266;52.434;17.056;2024-02-23T15:00:34;99098.30;;;9.60;70.48
54369;BME280;40266;52.434;17.056;2024-02-23T15:03:29;99095.52;;;9.56;69.98
54369;BME280;40266;52.434;17.056;2024-02-23T15:06:14;99097.25;;;9.51;70.66
54369;BME280;40266;52.434;17.056;2024-02-23T15:12:32;99098.90;;;9.44;70.57
54369;BME280;40266;52.434;17.056;2024-02-23T15:15:19;99100.48;;;9.39;70.12
54369;BME280;40266;52.434;17.056;2024-02-23T15:18:44;99099.16;;;9.33;69.80
54369;BME280;40266;52.434;17.056;2024-02-23T15:21:53;99099.50;;;9.28;69.96
54369;BME280;40266;52.434;17.056;2024-02-23T15:24:37;99097.99;;;9.22;70.04
54369;BME280;40266;52.434;17.056;2024-02-23T15:27:24;99099.11;;;9.16;70.25
54369;BME280;40266;52.434;17.056;2024-02-23T15:30:12;99099.80;;;9.11;70.28
54369;BME280;40266;52.434;17.056;2024-02-23T15:33:15;99101.07;;;9.05;70.55
54369;BME280;40266;52.434;17.056;2024-02-23T15:36:23;99100.80;;;8.98;70.56
54369;BME280;40266;52.434;17.056;2024-02-23T15:39:16;99103.62;;;8.92;70.84
54369;BME280;40266;52.434;17.056;2024-02-23T15:42:10;99101.86;;;8.87;71.15
54369;BME280;40266;52.434;17.056;2024-02-23T15:44:53;99106.48;;;8.85;71.56
54369;BME280;40266;52.434;17.056;2024-02-23T15:54:46;99113.77;;;8.76;72.19
54369;BME280;40266;52.434;17.056;2024-02-23T15:57:51;99113.33;;;8.73;72.56
54369;BME280;40266;52.434;17.056;2024-02-23T16:01:03;99120.45;;;8.73;73.10
54369;BME280;40266;52.434;17.056;2024-02-23T16:04:09;99136.00;;;8.72;73.12
54369;BME280;40266;52.434;17.056;2024-02-23T16:10:10;99135.76;;;8.74;73.61
54369;BME280;40266;52.434;17.056;2024-02-23T16:13:13;99136.36;;;8.72;73.55
54369;BME280;40266;52.434;17.056;2024-02-23T16:19:48;99144.31;;;8.68;74.24
54369;BME280;40266;52.434;17.056;2024-02-23T16:22:53;99142.73;;;8.63;74.25
54369;BME280;40266;52.434;17.056;2024-02-23T16:25:39;99145.16;;;8.58;74.58
54369;BME280;40266;52.434;17.056;2024-02-23T16:28:31;99152.45;;;8.54;74.88
54369;BME280;40266;52.434;17.056;2024-02-23T16:31:25;99149.86;;;8.48;75.31
54369;BME280;40266;52.434;17.056;2024-02-23T16:34:28;99150.13;;;8.40;75.38
54369;BME280;40266;52.434;17.056;2024-02-23T16:37:32;99151.71;;;8.33;75.47
54369;BME280;40266;52.434;17.056;2024-02-23T16:40:57;99152.80;;;8.25;76.15
54369;BME280;40266;52.434;17.056;2024-02-23T16:43:55;99160.45;;;8.21;76.41
54369;BME280;40266;52.434;17.056;2024-02-23T16:46:59;99162.54;;;8.15;76.70
54369;BME280;40266;52.434;17.056;2024-02-23T16:50:03;99165.27;;;8.05;77.07
54369;BME280;40266;52.434;17.056;2024-02-23T16:53:05;99162.23;;;7.97;77.43
54369;BME280;40266;52.434;17.056;2024-02-23T16:59:21;99156.50;;;7.80;77.64
54369;BME280;40266;52.434;17.056;2024-02-23T17:02:10;99162.34;;;7.71;77.91
54369;BME280;40266;52.434;17.056;2024-02-23T17:04:59;99166.21;;;7.63;78.14
54369;BME280;40266;52.434;17.056;2024-02-23T17:07:51;99170.42;;;7.56;78.51
54369;BME280;40266;52.434;17.056;2024-02-23T17:10:44;99164.73;;;7.48;78.64
54369;BME280;40266;52.434;17.056;2024-02-23T17:13:39;99162.64;;;7.42;78.97
54369;BME280;40266;52.434;17.056;2024-02-23T17:16:55;99161.44;;;7.36;79.46
54369;BME280;40266;52.434;17.056;2024-02-23T17:19:54;99166.55;;;7.33;80.15
54369;BME280;40266;52.434;17.056;2024-02-23T17:23:39;99162.69;;;7.29;80.52
54369;BME280;40266;52.434;17.056;2024-02-23T17:26:37;99162.11;;;7.24;80.68
54369;BME280;40266;52.434;17.056;2024-02-23T17:29:21;99170.23;;;7.19;81.00
54369;BME280;40266;52.434;17.056;2024-02-23T17:32:27;99185.07;;;7.17;81.14
54369;BME280;40266;52.434;17.056;2024-02-23T17:35:30;99199.02;;;7.14;81.64
54369;BME280;40266;52.434;17.056;2024-02-23T17:38:29;99206.90;;;7.12;81.79
54369;BME280;40266;52.434;17.056;2024-02-23T17:41:36;99219.27;;;7.11;82.33
54369;BME280;40266;52.434;17.056;2024-02-23T17:45:19;99223.27;;;7.09;82.31
54369;BME280;40266;52.434;17.056;2024-02-23T17:48:29;99228.28;;;7.11;82.76
54369;BME280;40266;52.434;17.056;2024-02-23T17:51:24;99225.81;;;7.12;82.85
54369;BME280;40266;52.434;17.056;2024-02-23T17:54:24;99229.05;;;7.15;82.93
54369;BME280;40266;52.434;17.056;2024-02-23T17:57:53;99232.27;;;7.17;83.61
54369;BME280;40266;52.434;17.056;2024-02-23T18:01:25;99222.98;;;7.21;83.81
54369;BME280;40266;52.434;17.056;2024-02-23T18:07:42;99209.45;;;7.21;84.13
54369;BME280;40266;52.434;17.056;2024-02-23T18:10:48;99206.95;;;7.23;84.02
54369;BME280;40266;52.434;17.056;2024-02-23T18:14:08;99197.04;;;7.23;84.08
54369;BME280;40266;52.434;17.056;2024-02-23T18:17:18;99192.77;;;7.27;84.17